Time;durP1;ratioP1;P1;durP2;ratioP2;P2;SDS_P1;SDS_P2;PMS_P1;PMS_P2;Temp;Humidity;BMP_temperature;BMP_pressure;BME280_temperature;BME280_humidity;BME280_pressure;Samples;Min_cycle;Max_cycle;Signal;HPM_P1;HPM_P2
2024/02/17 00:00:25;;;;;;;1.10;1.00;;;12.70;99.90;;;14.41;65.54;98268.44;5052024;28;20048;-52
2024/02/17 00:02:53;;;;;;;1.13;0.90;;;12.80;99.90;;;14.41;65.78;98265.75;5054523;28;20044;-51
2024/02/17 00:05:21;;;;;;;1.30;1.10;;;12.80;99.90;;;14.38;65.83;98270.47;5054622;28;20041;-51
2024/02/17 00:07:48;;;;;;;2.95;1.02;;;12.70;99.90;;;14.36;65.81;98272.47;5053888;28;20041;-51
2024/02/17 00:10:16;;;;;;;1.67;1.10;;;12.70;99.90;;;14.33;65.89;98274.66;5054736;28;20505;-50
2024/02/17 00:12:43;;;;;;;1.92;0.80;;;12.70;99.90;;;14.30;65.94;98275.78;5054679;28;20060;-54
2024/02/17 00:15:12;;;;;;;1.33;1.10;;;12.60;99.90;;;14.30;66.04;98270.44;5054383;28;20049;-53
2024/02/17 00:17:39;;;;;;;1.40;1.00;;;12.60;99.90;;;14.29;66.33;98276.00;5053864;28;20045;-54
2024/02/17 00:20:08;;;;;;;0.90;0.90;;;12.70;99.90;;;14.26;66.27;98279.81;5054227;28;20060;-54
2024/02/17 00:22:36;;;;;;;1.08;0.85;;;12.60;99.90;;;14.26;66.18;98270.97;5054167;28;20489;-51
2024/02/17 00:25:04;;;;;;;0.70;0.70;;;12.60;99.90;;;14.22;66.48;98283.84;5035804;28;20048;-50
2024/02/17 00:27:32;;;;;;;1.45;0.77;;;12.60;99.90;;;14.17;66.57;98289.72;5053663;28;20041;-52
2024/02/17 00:29:59;;;;;;;1.05;0.60;;;12.50;99.90;;;14.06;66.93;98284.69;5019440;28;20425;-53
2024/02/17 00:32:27;;;;;;;1.17;0.90;;;12.50;99.90;;;14.09;66.87;98279.00;5053628;28;20053;-52
2024/02/17 00:34:55;;;;;;;1.17;1.00;;;12.50;99.90;;;14.13;66.82;98285.72;5053817;28;20045;-54
2024/02/17 00:37:22;;;;;;;1.95;1.05;;;12.50;99.90;;;14.14;66.86;98290.03;5053266;28;20045;-53
2024/02/17 00:39:50;;;;;;;1.40;1.23;;;12.50;99.90;;;14.18;66.88;98287.88;5053116;28;20049;-52
2024/02/17 00:42:18;;;;;;;2.00;1.05;;;12.60;99.90;;;14.17;66.78;98292.41;5035978;28;20052;-51
2024/02/17 00:44:45;;;;;;;1.92;1.13;;;12.50;99.90;;;14.18;66.78;98302.09;5052322;28;20044;-52
2024/02/17 00:47:13;;;;;;;2.53;1.40;;;12.60;99.90;;;14.18;66.76;98302.09;5052822;28;20056;-51
2024/02/17 00:49:40;;;;;;;1.70;1.20;;;12.50;99.90;;;14.20;66.76;98301.94;5035525;28;20497;-54
2024/02/17 00:52:08;;;;;;;3.42;1.60;;;12.50;99.90;;;14.18;66.84;98304.78;5053847;28;20045;-50
2024/02/17 00:54:36;;;;;;;1.48;1.05;;;12.60;99.90;;;14.20;66.80;98303.78;5053250;28;20041;-52
2024/02/17 00:57:03;;;;;;;0.90;0.90;;;12.60;99.90;;;14.21;66.61;98311.66;5053124;28;20056;-53
2024/02/17 00:59:31;;;;;;;1.48;0.80;;;12.60;99.90;;;13.95;67.64;98312.63;5053305;28;20054;-53
2024/02/17 01:02:01;;;;;;;1.33;1.10;;;12.50;99.90;;;13.98;67.37;98314.16;5053545;28;20451;-53
2024/02/17 01:04:28;;;;;;;0.63;0.63;;;12.40;99.90;;;13.91;67.71;98316.63;5034744;28;20060;-53
2024/02/17 01:06:56;;;;;;;1.60;0.80;;;12.30;99.90;;;13.89;67.67;98313.28;5052386;28;20048;-51
2024/02/17 01:09:24;;;;;;;0.80;0.60;;;12.30;99.90;;;13.89;67.81;98317.81;5053261;28;20041;-55
2024/02/17 01:11:51;;;;;;;0.77;0.77;;;12.30;99.90;;;13.76;68.21;98319.16;5052720;28;20041;-51
2024/02/17 01:14:20;;;;;;;1.13;0.90;;;12.20;99.90;;;13.76;68.25;98319.16;5053413;28;20053;-51
2024/02/17 01:16:48;;;;;;;1.30;1.02;;;12.20;99.90;;;13.74;68.48;98320.31;5052273;28;20048;-54
2024/02/17 01:19:15;;;;;;;1.20;1.00;;;12.20;99.90;;;13.65;68.73;98327.50;5052786;28;20041;-51
2024/02/17 01:21:43;;;;;;;0.80;0.80;;;12.20;99.90;;;13.61;68.86;98326.16;5053007;28;20084;-52
2024/02/17 01:24:11;;;;;;;0.88;0.88;;;12.20;99.90;;;13.63;69.08;98326.81;5052909;28;20045;-53
2024/02/17 01:26:38;;;;;;;1.30;1.20;;;12.20;99.90;;;13.66;68.96;98337.19;5034031;28;20072;-53
2024/02/17 01:29:06;;;;;;;1.13;0.80;;;12.20;99.90;;;13.64;68.93;98325.81;5052838;28;20044;-54
2024/02/17 01:31:33;;;;;;;0.57;0.50;;;12.20;99.90;;;13.52;69.65;98335.16;5052678;28;20041;-51
2024/02/17 01:34:01;;;;;;;0.80;0.80;;;12.10;99.90;;;13.55;69.62;98340.16;5052602;28;20052;-51
2024/02/17 01:36:28;;;;;;;1.08;0.90;;;12.10;99.90;;;13.41;69.86;98330.09;5048504;28;20398;-52
2024/02/17 01:38:56;;;;;;;1.15;0.80;;;12.00;99.90;;;13.43;70.02;98336.13;5034477;28;20053;-54
2024/02/17 01:41:24;;;;;;;0.80;0.80;;;12.00;99.90;;;13.46;69.91;98347.34;5052748;28;20055;-54
2024/02/17 01:43:51;;;;;;;1.52;1.10;;;12.00;99.90;;;13.54;69.70;98343.84;5052574;28;20056;-50
2024/02/17 01:46:19;;;;;;;1.10;1.00;;;12.10;99.90;;;13.41;69.97;98364.88;5051931;28;20056;-52
2024/02/17 01:48:47;;;;;;;1.10;1.00;;;12.00;99.90;;;13.39;70.31;98373.88;5034744;28;20502;-54
2024/02/17 01:51:15;;;;;;;2.00;1.67;;;12.00;99.90;;;13.51;70.05;98386.97;5035353;28;20045;-54
2024/02/17 01:53:43;;;;;;;4.80;3.40;;;12.00;99.90;;;13.36;69.91;98379.56;5052431;28;20047;-52
2024/02/17 01:56:11;;;;;;;4.78;3.80;;;11.90;99.90;;;13.33;69.62;98379.88;5034615;28;20049;-53
2024/02/17 01:58:38;;;;;;;4.32;2.92;;;11.80;99.90;;;13.12;69.69;98382.91;5052239;28;20079;-54
2024/02/17 02:01:06;;;;;;;6.07;4.25;;;11.60;99.90;;;13.17;69.76;98379.78;5052560;28;20045;-52
2024/02/17 02:03:35;;;;;;;4.90;3.30;;;11.60;99.90;;;13.22;69.70;98382.78;5052468;28;20060;-53
2024/02/17 02:06:03;;;;;;;7.15;5.25;;;11.60;99.90;;;13.11;69.86;98388.44;5034108;28;20056;-51
2024/02/17 02:08:31;;;;;;;6.43;4.35;;;11.60;99.90;;;13.21;69.47;98381.13;5052468;28;20177;-54
2024/02/17 02:11:00;;;;;;;8.48;5.40;;;11.60;99.90;;;13.30;69.27;98388.22;5034498;28;20041;-53
2024/02/17 02:13:28;;;;;;;10.20;6.05;;;11.70;99.90;;;13.10;69.49;98397.44;5033858;28;20069;-53
2024/02/17 02:15:56;;;;;;;8.57;5.63;;;11.50;99.90;;;13.11;69.49;98399.97;5051786;28;20049;-53
2024/02/17 02:18:23;;;;;;;9.32;6.00;;;11.60;99.90;;;13.11;69.46;98401.81;5034074;28;20506;-54
2024/02/17 02:20:51;;;;;;;10.90;7.25;;;11.60;99.90;;;13.16;69.06;98402.16;5052014;28;20052;-54
2024/02/17 02:23:19;;;;;;;10.70;6.57;;;11.60;99.90;;;13.12;69.01;98403.47;5032294;28;20049;-53
2024/02/17 02:25:56;;;;;;;11.23;6.88;;;11.60;99.90;;;13.14;69.21;98412.16;5042106;28;20048;-53
2024/02/17 02:28:24;;;;;;;10.33;6.63;;;11.60;99.90;;;13.15;68.80;98414.69;5051488;28;20052;-51
2024/02/17 02:30:57;;;;;;;11.63;6.77;;;11.50;99.90;;;13.04;69.47;98416.78;5051761;28;20044;-53
2024/02/17 02:33:25;;;;;;;10.30;7.85;;;11.40;99.90;;;13.10;69.10;98414.31;5051689;28;20052;-51
2024/02/17 02:35:53;;;;;;;11.30;7.73;;;11.50;99.90;;;13.04;69.51;98414.13;5033043;28;20403;-51
2024/02/17 02:38:20;;;;;;;13.48;8.65;;;11.50;99.90;;;13.04;69.59;98416.78;5051529;28;20485;-55
2024/02/17 02:40:48;;;;;;;11.57;8.25;;;11.50;99.90;;;12.98;69.37;98427.09;5042986;28;20417;-54
2024/02/17 02:43:16;;;;;;;13.35;8.70;;;11.40;99.90;;;12.91;69.56;98428.75;5051545;28;20044;-54
2024/02/17 02:45:44;;;;;;;13.32;8.60;;;11.30;99.90;;;12.88;69.56;98429.06;5050847;28;20116;-54
2024/02/17 02:48:11;;;;;;;13.05;9.02;;;11.30;99.90;;;12.76;69.95;98431.16;5032751;28;20049;-54
2024/02/17 02:50:39;;;;;;;16.08;9.43;;;11.20;99.90;;;12.76;70.00;98443.66;5032914;28;20049;-52
2024/02/17 02:53:08;;;;;;;13.27;9.52;;;11.20;99.90;;;12.81;69.68;98436.00;5051413;28;20052;-51
2024/02/17 02:55:36;;;;;;;14.55;8.77;;;11.30;99.90;;;12.80;69.66;98440.53;5051185;28;20049;-53
2024/02/17 02:58:04;;;;;;;15.45;9.52;;;11.30;99.90;;;12.67;70.03;98444.59;5051088;28;20045;-52
2024/02/17 03:00:31;;;;;;;14.23;9.85;;;11.20;99.90;;;12.76;69.91;98441.84;5051113;28;20052;-53
2024/02/17 03:02:59;;;;;;;16.42;10.38;;;11.20;99.90;;;12.84;69.80;98451.75;5051227;28;20045;-54
2024/02/17 03:05:27;;;;;;;15.50;10.25;;;11.30;99.90;;;12.77;69.85;98451.50;5050497;28;20049;-54
2024/02/17 03:07:54;;;;;;;16.20;10.68;;;11.20;99.90;;;12.75;69.86;98447.31;5033056;28;20444;-53
2024/02/17 03:10:22;;;;;;;14.30;9.73;;;11.20;99.90;;;12.82;69.54;98447.56;5051240;28;20041;-54
2024/02/17 03:12:50;;;;;;;16.90;10.50;;;11.20;99.90;;;12.86;69.63;98457.78;5050960;28;20421;-53
2024/02/17 03:15:18;;;;;;;16.52;10.85;;;11.20;99.90;;;12.87;69.24;98455.94;5050993;28;20097;-53
2024/02/17 03:17:46;;;;;;;15.70;10.55;;;11.20;99.90;;;12.84;69.29;98473.13;5050086;28;20060;-54
2024/02/17 03:20:15;;;;;;;14.23;10.73;;;11.20;99.90;;;12.87;69.39;98469.28;5033361;28;20101;-52
2024/02/17 03:22:44;;;;;;;17.33;11.05;;;11.20;99.90;;;12.88;69.27;98466.47;5050789;28;20048;-52
2024/02/17 03:25:12;;;;;;;18.13;10.88;;;11.20;99.90;;;12.83;69.32;98468.75;5050783;28;20049;-53
2024/02/17 03:27:40;;;;;;;18.65;10.90;;;11.20;99.90;;;12.86;69.34;98475.66;5048453;28;20052;-54
2024/02/17 03:30:08;;;;;;;15.93;10.83;;;11.20;99.90;;;12.84;69.46;98482.97;5050945;28;20512;-54
2024/02/17 03:32:36;;;;;;;15.53;11.47;;;11.20;99.90;;;12.81;69.22;98481.44;5050518;28;20049;-52
2024/02/17 03:35:04;;;;;;;19.37;11.67;;;11.20;99.90;;;12.86;69.34;98484.50;5048629;28;20052;-51
2024/02/17 03:37:32;;;;;;;18.67;11.48;;;11.20;99.90;;;12.92;68.93;98483.03;5049640;28;20049;-51
2024/02/17 03:39:59;;;;;;;18.47;11.90;;;11.30;99.90;;;12.89;68.88;98486.88;5031738;28;20044;-54
2024/02/17 03:42:27;;;;;;;18.73;11.37;;;11.20;99.90;;;12.94;69.01;98486.38;5032308;28;20498;-53
2024/02/17 03:44:55;;;;;;;17.77;11.47;;;11.30;99.90;;;12.91;69.04;98490.22;5042575;28;20040;-52
2024/02/17 03:47:22;;;;;;;14.38;10.05;;;11.30;99.90;;;12.90;68.82;98477.84;5050237;28;20041;-53
2024/02/17 03:49:50;;;;;;;16.30;11.43;;;11.20;99.90;;;12.91;68.69;98489.34;5050369;28;20103;-54
2024/02/17 03:52:18;;;;;;;15.10;10.50;;;11.20;99.90;;;12.92;68.47;98489.22;5050624;28;20041;-53
2024/02/17 03:54:45;;;;;;;16.83;11.30;;;11.20;99.90;;;12.96;68.28;98493.25;5016099;28;20430;-53
2024/02/17 03:57:15;;;;;;;15.47;10.27;;;11.30;99.90;;;12.99;68.21;98498.28;5049927;28;20041;-51
2024/02/17 03:59:43;;;;;;;14.67;10.40;;;11.30;99.90;;;12.96;67.93;98501.25;5050584;28;20433;-53
2024/02/17 04:02:11;;;;;;;16.73;10.27;;;11.30;99.90;;;12.99;67.64;98500.13;5050364;28;20052;-54
2024/02/17 04:04:40;;;;;;;14.70;10.17;;;11.30;99.90;;;12.99;67.91;98506.31;5050232;28;20398;-53
2024/02/17 04:07:07;;;;;;;17.37;11.53;;;11.30;99.90;;;13.00;67.79;98507.16;5049978;28;20033;-54
2024/02/17 04:09:35;;;;;;;17.97;11.77;;;11.30;99.90;;;12.98;67.81;98517.97;5049971;28;20052;-54
2024/02/17 04:12:03;;;;;;;16.03;10.03;;;11.30;99.90;;;12.80;67.78;98526.03;5050152;28;20067;-53
2024/02/17 04:14:31;;;;;;;15.35;10.50;;;11.20;99.90;;;12.82;67.95;98523.22;5032497;28;20045;-53
2024/02/17 04:16:58;;;;;;;17.00;10.53;;;11.20;99.90;;;12.79;67.98;98536.88;5049829;28;20058;-53
2024/02/17 04:19:26;;;;;;;17.30;10.32;;;11.10;99.90;;;12.64;68.20;98538.38;5032268;28;20044;-52
2024/02/17 04:21:54;;;;;;;17.33;11.25;;;11.00;99.90;;;12.63;68.48;98547.41;5050139;28;20045;-52
2024/02/17 04:24:22;;;;;;;17.80;10.75;;;11.10;99.90;;;12.61;68.41;98547.56;5050217;28;20411;-52
2024/02/17 04:26:49;;;;;;;17.73;11.30;;;11.00;99.90;;;12.52;68.57;98567.16;5031979;28;20041;-53
2024/02/17 04:29:18;;;;;;;19.00;12.43;;;10.90;99.90;;;12.53;68.63;98563.50;5050277;28;20524;-54
2024/02/17 04:31:46;;;;;;;21.57;12.73;;;10.90;99.90;;;12.48;68.98;98571.13;5031704;28;20498;-53
2024/02/17 04:34:14;;;;;;;20.10;12.90;;;10.80;99.90;;;12.43;68.94;98570.72;5032074;28;20540;-52
2024/02/17 04:36:42;;;;;;;18.77;11.87;;;10.80;99.90;;;12.45;69.00;98568.78;5029252;28;20363;-59
2024/02/17 04:39:12;;;;;;;21.33;12.20;;;10.90;99.90;;;12.32;69.25;98571.78;5048957;28;20041;-58
2024/02/17 04:41:40;;;;;;;16.23;11.77;;;10.80;99.90;;;12.38;69.22;98579.19;5049872;28;20098;-59
2024/02/17 04:44:07;;;;;;;19.53;11.97;;;10.80;99.90;;;12.38;69.23;98587.22;5049990;28;20038;-58
2024/02/17 04:46:35;;;;;;;16.67;10.83;;;10.80;99.90;;;12.38;69.10;98585.38;5051295;28;20037;-58
2024/02/17 04:49:02;;;;;;;16.80;10.50;;;10.80;99.90;;;12.43;69.04;98584.06;5053552;28;20048;-58
2024/02/17 04:51:30;;;;;;;18.53;11.13;;;10.80;99.90;;;12.27;69.09;98588.28;5053419;28;20350;-59
2024/02/17 04:53:59;;;;;;;19.48;11.10;;;10.80;99.90;;;12.34;69.15;98604.53;5053508;28;20417;-58
2024/02/17 04:56:27;;;;;;;18.07;12.60;;;10.80;99.90;;;12.32;69.12;98606.50;5035593;28;20044;-58
2024/02/17 04:58:55;;;;;;;16.77;10.00;;;10.80;99.90;;;12.28;69.39;98602.44;5053390;28;20053;-58
2024/02/17 05:01:23;;;;;;;16.57;10.53;;;10.70;99.90;;;12.34;69.12;98599.19;5053461;28;20048;-59
2024/02/17 05:03:51;;;;;;;18.33;11.77;;;10.70;99.90;;;12.31;69.12;98610.16;5053479;28;20049;-58
2024/02/17 05:06:20;;;;;;;14.93;9.52;;;10.80;99.90;;;12.24;69.36;98607.25;5052628;28;20036;-59
2024/02/17 05:08:48;;;;;;;15.47;10.57;;;10.70;99.90;;;12.18;69.33;98611.34;5052946;28;20049;-59
2024/02/17 05:11:16;;;;;;;15.20;10.30;;;10.60;99.90;;;12.12;69.72;98614.59;5051784;28;20060;-59
2024/02/17 05:13:44;;;;;;;18.90;10.47;;;10.60;99.90;;;12.17;69.64;98617.69;5053124;28;20037;-59
2024/02/17 05:16:12;;;;;;;21.27;11.37;;;10.70;99.90;;;12.26;69.67;98618.63;5035194;28;20045;-59
2024/02/17 05:18:40;;;;;;;15.30;9.30;;;10.70;99.90;;;12.32;69.24;98623.34;5052879;28;20428;-59
2024/02/17 05:21:10;;;;;;;14.37;10.07;;;10.70;99.90;;;12.25;69.06;98630.28;5053135;28;20393;-59
2024/02/17 05:23:38;;;;;;;14.97;9.30;;;10.70;99.90;;;12.24;69.46;98630.44;5052962;28;20068;-59
2024/02/17 05:26:06;;;;;;;18.40;10.93;;;10.70;99.90;;;12.29;68.98;98637.03;5052507;28;20052;-58
2024/02/17 05:28:34;;;;;;;17.23;10.00;;;10.60;99.90;;;12.21;69.27;98631.56;5052668;28;20063;-59
2024/02/17 05:31:02;;;;;;;16.80;11.60;;;10.70;99.90;;;12.12;69.64;98637.81;5052787;28;20037;-59
2024/02/17 05:33:29;;;;;;;14.57;10.73;;;10.60;99.90;;;12.15;69.14;98632.16;5042765;28;20506;-59
2024/02/17 05:35:57;;;;;;;15.57;10.37;;;10.60;99.90;;;12.15;69.31;98643.66;5052203;28;20524;-58
2024/02/17 05:38:25;;;;;;;15.13;10.40;;;10.60;99.90;;;12.24;69.14;98647.28;5052332;28;20045;-59
2024/02/17 05:40:52;;;;;;;18.43;11.17;;;10.70;99.90;;;12.26;69.25;98647.97;5052009;28;20049;-59
2024/02/17 05:43:20;;;;;;;19.47;11.33;;;10.70;99.90;;;12.27;68.94;98657.69;5052651;28;20049;-59
2024/02/17 05:45:48;;;;;;;17.47;11.60;;;10.70;99.90;;;12.33;68.74;98658.91;5052117;28;20048;-59
2024/02/17 05:48:15;;;;;;;16.07;10.43;;;10.70;99.90;;;12.29;68.70;98662.84;5052417;28;20405;-59
2024/02/17 05:50:43;;;;;;;16.90;9.97;;;10.70;99.90;;;12.20;68.87;98667.25;5042050;28;20052;-59
2024/02/17 05:53:11;;;;;;;16.73;10.13;;;10.60;99.90;;;12.14;68.97;98670.53;5052361;28;20044;-59
2024/02/17 05:55:38;;;;;;;19.37;11.43;;;10.60;99.90;;;12.06;69.32;98679.25;5052482;28;20175;-59
2024/02/17 05:58:06;;;;;;;18.60;11.00;;;10.50;99.90;;;12.05;69.19;98676.72;5052120;28;20509;-59
2024/02/17 06:00:34;;;;;;;20.07;11.73;;;10.50;99.90;;;12.10;68.99;98685.16;5052237;28;20048;-58
2024/02/17 06:03:02;;;;;;;18.63;11.70;;;10.50;99.90;;;12.04;69.47;98685.72;5052191;28;20053;-59
2024/02/17 06:05:32;;;;;;;19.50;11.07;;;10.50;99.90;;;12.05;69.28;98690.06;5052145;28;20041;-58
2024/02/17 06:07:59;;;;;;;17.17;10.37;;;10.40;99.90;;;12.07;68.90;98694.28;5051721;28;20045;-59
2024/02/17 06:10:27;;;;;;;18.90;11.20;;;10.40;99.90;;;12.07;68.60;98699.59;5052138;28;20044;-59
2024/02/17 06:12:55;;;;;;;20.27;11.97;;;10.40;99.90;;;12.08;68.76;98703.09;5051508;28;20049;-59
2024/02/17 06:15:24;;;;;;;20.90;11.87;;;10.40;99.90;;;11.99;68.66;98712.84;5052060;28;20490;-59
2024/02/17 06:21:10;;;;;;;18.97;11.80;;;10.40;99.90;;;11.86;68.50;98713.09;5051883;28;20045;-58
2024/02/17 06:23:27;;;;;;;22.17;12.23;;;10.20;99.90;;;11.85;68.58;98719.44;5046180;28;20041;-58
2024/02/17 06:25:54;;;;;;;25.73;12.43;;;10.10;99.90;;;11.87;68.29;98720.13;5051221;28;20524;-57
2024/02/17 06:28:22;;;;;;;23.00;13.97;;;10.20;99.90;;;11.82;68.34;98720.56;5051727;28;20485;-58
2024/02/17 06:30:49;;;;;;;21.93;13.30;;;10.20;99.90;;;11.82;68.64;98728.59;5051703;28;20045;-58
2024/02/17 06:33:17;;;;;;;19.80;11.30;;;10.10;99.90;;;11.79;68.56;98736.03;5051563;28;20045;-58
2024/02/17 06:35:45;;;;;;;22.10;12.67;;;10.10;99.90;;;11.77;68.58;98735.31;5051109;28;20045;-59
2024/02/17 06:38:15;;;;;;;20.10;11.80;;;10.10;99.90;;;11.79;68.40;98736.03;5033132;28;20052;-59
2024/02/17 06:40:43;;;;;;;21.80;12.50;;;10.10;99.90;;;11.81;68.48;98744.72;5050813;28;20045;-58
2024/02/17 06:43:11;;;;;;;23.43;13.70;;;10.10;99.90;;;11.80;67.91;98748.38;5043455;28;20037;-57
2024/02/17 06:45:38;;;;;;;24.47;13.97;;;10.10;99.90;;;11.75;67.91;98754.13;5033208;28;20079;-57
2024/02/17 06:48:07;;;;;;;26.30;13.83;;;10.10;99.90;;;11.72;67.93;98758.91;5050934;28;20045;-58
2024/02/17 06:50:34;;;;;;;20.70;12.73;;;10.00;99.90;;;11.72;67.68;98764.25;5051489;28;20052;-59
2024/02/17 06:53:02;;;;;;;22.70;13.83;;;9.90;99.90;;;11.68;68.15;98774.34;5033502;28;20052;-59
2024/02/17 06:55:29;;;;;;;23.17;13.93;;;9.90;99.90;;;11.67;67.75;98770.00;5051342;28;20039;-59
2024/02/17 06:57:57;;;;;;;21.30;13.93;;;9.90;99.90;;;11.67;68.13;98766.47;5050775;28;20037;-60
2024/02/17 07:00:24;;;;;;;20.70;12.33;;;9.90;99.90;;;11.68;68.12;98779.69;5051170;28;20041;-59
2024/02/17 07:02:52;;;;;;;22.57;13.87;;;9.90;99.90;;;11.68;67.91;98779.69;5051071;28;20497;-59
2024/02/17 07:05:20;;;;;;;22.77;14.33;;;9.90;99.90;;;11.69;68.24;98783.19;5050499;28;20051;-60
2024/02/17 07:07:47;;;;;;;22.80;13.10;;;10.00;99.90;;;11.72;68.38;98789.09;5050539;28;20040;-59
2024/02/17 07:10:15;;;;;;;23.57;13.27;;;10.00;99.90;;;11.74;68.19;98788.94;5042826;28;20041;-60
2024/02/17 07:12:43;;;;;;;23.77;14.23;;;10.00;99.90;;;11.75;67.89;98793.31;5051123;28;20047;-60
2024/02/17 07:15:11;;;;;;;21.83;13.20;;;10.00;99.90;;;11.77;68.05;98800.19;5050624;28;20037;-60
2024/02/17 07:17:38;;;;;;;20.47;11.67;;;10.00;99.90;;;11.75;67.69;98804.81;5049952;28;20045;-59
2024/02/17 07:20:08;;;;;;;24.40;13.90;;;10.00;99.90;;;11.68;67.88;98805.53;5050585;28;20053;-60
2024/02/17 07:22:36;;;;;;;24.90;12.57;;;9.90;99.90;;;11.70;67.96;98816.91;5050259;28;20093;-59
2024/02/17 07:25:05;;;;;;;25.53;13.97;;;10.00;99.90;;;11.71;67.91;98814.09;5050341;28;20100;-59
2024/02/17 07:27:32;;;;;;;27.80;13.77;;;10.00;99.90;;;11.71;67.74;98823.91;5049646;28;20405;-59
2024/02/17 07:30:01;;;;;;;24.43;13.60;;;9.90;99.90;;;11.70;67.64;98825.72;5050221;28;20204;-59
2024/02/17 07:32:29;;;;;;;24.20;13.37;;;10.00;99.90;;;11.68;67.87;98829.53;5050346;28;20430;-59
2024/02/17 07:34:57;;;;;;;22.33;13.67;;;9.90;99.90;;;11.63;67.88;98829.94;5050163;28;20052;-59
2024/02/17 07:37:25;;;;;;;24.53;13.47;;;9.90;99.90;;;11.62;67.88;98837.09;5047103;28;20048;-59
2024/02/17 07:39:52;;;;;;;26.87;15.10;;;9.90;99.90;;;11.62;68.15;98846.94;5049731;28;20056;-59
2024/02/17 07:42:20;;;;;;;26.40;15.53;;;9.90;99.90;;;11.58;68.05;98850.84;5050486;28;20041;-60
2024/02/17 07:44:48;;;;;;;28.50;15.17;;;9.90;99.90;;;11.63;68.53;98852.13;5050459;28;20052;-59
2024/02/17 07:47:15;;;;;;;27.53;15.30;;;10.00;99.90;;;11.79;68.93;98854.25;5049798;28;20044;-59
2024/02/17 07:49:43;;;;;;;25.57;12.87;;;10.20;99.90;;;11.74;68.77;98860.97;5050470;28;20204;-59
2024/02/17 07:52:11;;;;;;;22.70;14.47;;;10.20;99.90;;;11.78;69.27;98871.22;5050115;28;20048;-59
2024/02/17 07:54:39;;;;;;;25.67;14.70;;;10.30;99.90;;;11.85;69.05;98868.03;5032998;28;20485;-59
2024/02/17 07:57:08;;;;;;;23.47;13.07;;;10.40;99.90;;;11.97;69.21;98875.78;5049724;28;20533;-59
2024/02/17 07:59:35;;;;;;;21.13;12.43;;;10.40;99.90;;;12.05;69.20;98877.75;5032798;28;20049;-59
2024/02/17 08:02:03;;;;;;;22.23;12.13;;;10.50;99.90;;;12.04;69.17;98883.22;5050386;28;20049;-59
2024/02/17 08:04:31;;;;;;;21.90;14.03;;;10.50;99.90;;;11.82;69.25;98887.81;5050443;28;20041;-59
2024/02/17 08:06:59;;;;;;;22.33;14.53;;;10.40;99.90;;;11.80;69.60;98887.94;5032183;28;20493;-59
2024/02/17 08:09:27;;;;;;;21.27;12.83;;;10.30;99.90;;;11.96;69.07;98894.59;5032347;28;20048;-59
2024/02/17 08:11:54;;;;;;;20.63;12.30;;;10.40;99.90;;;12.03;69.72;98901.06;5050292;28;20044;-59
2024/02/17 08:14:22;;;;;;;18.57;11.57;;;10.50;99.90;;;12.10;69.23;98909.38;5050350;28;20036;-60
2024/02/17 08:16:52;;;;;;;18.63;11.17;;;10.60;99.90;;;12.05;69.07;98906.25;5049961;28;20053;-60
2024/02/17 08:19:19;;;;;;;17.27;10.77;;;10.60;99.90;;;12.10;68.76;98910.22;5050137;28;20048;-59
2024/02/17 08:21:47;;;;;;;20.67;11.30;;;10.60;99.90;;;12.21;68.69;98915.41;5052525;28;20056;-60
2024/02/17 08:24:15;;;;;;;18.90;10.73;;;10.70;99.90;;;12.30;68.42;98911.03;5053893;28;20044;-60
2024/02/17 08:26:42;;;;;;;17.33;11.00;;;10.80;99.90;;;12.25;67.89;98915.13;5053658;28;20041;-60
2024/02/17 08:29:10;;;;;;;15.57;10.87;;;10.70;99.90;;;12.31;67.79;98912.75;5053933;28;20059;-60
2024/02/17 08:31:37;;;;;;;13.60;9.67;;;10.80;99.90;;;12.44;67.80;98922.28;5035547;28;20440;-49
2024/02/17 08:34:05;;;;;;;16.33;10.63;;;10.90;99.90;;;12.35;67.61;98927.50;5053919;28;20040;-51
2024/02/17 08:36:38;;;;;;;16.93;9.77;;;10.80;99.90;;;12.36;67.52;98915.81;5053497;28;20532;-54
2024/02/17 08:39:06;;;;;;;13.43;9.25;;;10.80;99.90;;;12.35;67.36;98919.47;5035919;28;20048;-52
2024/02/17 08:41:33;;;;;;;17.03;10.37;;;10.80;99.90;;;12.36;67.48;98925.66;5053030;28;20040;-50
2024/02/17 08:44:01;;;;;;;15.10;9.43;;;10.70;99.90;;;12.25;67.11;98923.94;5053761;28;20045;-50
2024/02/17 08:46:29;;;;;;;15.03;10.13;;;10.70;99.90;;;12.27;67.13;98922.03;5053346;28;20048;-53
2024/02/17 08:48:56;;;;;;;18.80;10.67;;;10.70;99.90;;;12.19;67.46;98925.38;5053637;28;20081;-54
2024/02/17 08:51:24;;;;;;;13.97;10.33;;;10.60;99.90;;;12.12;67.19;98916.25;5045524;28;20044;-52
2024/02/17 08:53:53;;;;;;;18.37;9.83;;;10.60;99.90;;;12.15;67.52;98931.97;5053486;28;20052;-53
2024/02/17 08:56:21;;;;;;;15.50;9.33;;;10.60;99.90;;;12.06;67.39;98930.16;5053101;28;20421;-52
2024/02/17 08:58:49;;;;;;;15.87;9.67;;;10.60;99.90;;;12.05;67.48;98936.47;5029322;28;20060;-53
2024/02/17 09:01:17;;;;;;;16.53;10.80;;;10.50;99.90;;;12.06;67.35;98940.84;5053137;28;20045;-49
2024/02/17 09:03:45;;;;;;;14.50;8.97;;;10.50;99.90;;;11.97;67.63;98944.31;5049234;28;20052;-52
2024/02/17 09:06:12;;;;;;;14.97;9.67;;;10.50;99.90;;;11.90;67.47;98946.69;5047429;28;20655;-54
2024/02/17 09:08:41;;;;;;;14.43;8.97;;;10.50;99.90;;;11.80;68.00;98951.97;5050314;28;20041;-52
2024/02/17 09:11:09;;;;;;;15.57;10.37;;;10.40;99.90;;;11.84;67.88;98957.88;5050021;28;20045;-52
2024/02/17 09:13:37;;;;;;;16.33;8.47;;;10.40;99.90;;;11.63;68.41;98964.16;5050298;28;20049;-52
2024/02/17 09:16:05;;;;;;;15.27;8.90;;;10.40;99.90;;;11.66;68.39;98956.88;5050955;28;20048;-50
2024/02/17 09:18:32;;;;;;;13.13;8.40;;;10.30;99.90;;;11.63;68.59;98957.97;5031609;28;20099;-49
2024/02/17 09:21:00;;;;;;;16.13;8.80;;;10.30;99.90;;;11.50;68.76;98965.38;5051959;28;20052;-48
2024/02/17 09:23:28;;;;;;;12.03;9.50;;;10.20;99.90;;;11.66;68.50;98970.22;5046013;28;20490;-52
2024/02/17 09:25:55;;;;;;;15.63;9.50;;;10.30;99.90;;;11.84;68.11;98976.56;5051652;28;20041;-51
2024/02/17 09:28:23;;;;;;;14.67;9.77;;;10.50;99.90;;;12.00;67.96;98986.75;5066811;28;20056;-49
2024/02/17 09:30:51;;;;;;;13.37;7.67;;;10.60;99.90;;;12.05;68.26;98989.84;5051497;28;20049;-49
2024/02/17 09:33:20;;;;;;;11.53;7.90;;;10.70;99.90;;;12.21;67.92;98984.81;5033120;28;20049;-51
2024/02/17 09:35:48;;;;;;;14.33;9.90;;;10.90;99.90;;;12.24;68.03;98985.53;5066348;28;20048;-49
2024/02/17 09:38:15;;;;;;;14.53;9.83;;;10.90;99.90;;;12.35;67.34;98998.75;5051452;28;20052;-50
2024/02/17 09:40:43;;;;;;;21.77;14.17;;;11.00;99.90;;;12.27;67.08;99004.78;5051691;28;20409;-49
2024/02/17 09:43:12;;;;;;;21.10;12.10;;;10.90;99.90;;;12.33;67.14;99001.56;5050822;28;20053;-50
2024/02/17 09:45:40;;;;;;;15.07;9.30;;;11.00;99.90;;;12.46;66.95;99014.63;5051519;28;20049;-48
2024/02/17 09:48:10;;;;;;;19.33;10.73;;;11.10;99.90;;;12.48;66.38;99011.81;5050759;28;20049;-48
2024/02/17 09:50:39;;;;;;;15.00;9.80;;;11.00;99.80;;;12.50;66.01;99018.69;5034207;28;20040;-52
2024/02/17 09:53:08;;;;;;;16.35;10.48;;;11.10;99.70;;;12.38;66.07;99017.97;5051220;28;20093;-48
2024/02/17 09:55:36;;;;;;;16.00;10.97;;;11.00;99.90;;;12.40;66.17;99032.03;5031165;28;20037;-48
2024/02/17 09:58:04;;;;;;;17.43;11.27;;;11.00;99.90;;;12.53;65.90;99029.13;5050890;28;20517;-48
2024/02/17 10:00:31;;;;;;;14.63;9.48;;;11.00;99.90;;;12.56;66.21;99022.63;5043335;28;20045;-50
2024/02/17 10:02:59;;;;;;;14.03;10.50;;;11.10;99.90;;;12.62;65.83;99030.13;5051402;28;20044;-49
2024/02/17 10:05:28;;;;;;;12.32;8.63;;;11.20;99.90;;;12.75;66.19;99033.31;5050705;28;20049;-50
2024/02/17 10:07:56;;;;;;;13.02;9.18;;;11.40;99.90;;;12.94;66.06;99032.47;5050622;28;20316;-48
2024/02/17 10:10:24;;;;;;;11.55;8.07;;;11.60;99.90;;;13.06;65.59;99033.16;5050869;28;20048;-49
2024/02/17 10:12:58;;;;;;;10.40;8.55;;;11.70;99.70;;;13.17;65.29;99032.16;5052029;28;20045;-52
2024/02/17 10:15:26;;;;;;;;;;;11.80;97.70;;;13.06;64.37;99041.19;5052651;28;20049;-49